sensor_id;sensor_type;location;lat;lon;timestamp;pressure;altitude;pressure_sealevel;temperature;humidity
59194;BME280;44967;48.598;15.650;2022-07-05T00:00:03;98159.69;;;23.72;56.19
59194;BME280;44967;48.598;15.650;2022-07-05T00:02:29;98160.81;;;23.74;56.37
59194;BME280;44967;48.598;15.650;2022-07-05T00:04:55;98158.03;;;23.74;56.29
59194;BME280;44967;48.598;15.650;2022-07-05T00:07:20;98163.72;;;23.71;56.35
59194;BME280;44967;48.598;15.650;2022-07-05T00:09:55;98161.94;;;23.64;55.96
59194;BME280;44967;48.598;15.650;2022-07-05T00:12:23;98164.41;;;23.62;56.04
59194;BME280;44967;48.598;15.650;2022-07-05T00:14:50;98172.19;;;23.67;56.79
59194;BME280;44967;48.598;15.650;2022-07-05T00:17:16;98172.53;;;23.69;56.63
59194;BME280;44967;48.598;15.650;2022-07-05T00:19:42;98173.31;;;23.69;55.77
59194;BME280;44967;48.598;15.650;2022-07-05T00:22:08;98185.13;;;23.74;56.62
59194;BME280;44967;48.598;15.650;2022-07-05T00:24:33;98181.66;;;23.82;56.06
59194;BME280;44967;48.598;15.650;2022-07-05T00:26:59;98173.41;;;23.79;56.39
59194;BME280;44967;48.598;15.650;2022-07-05T00:29:25;98174.75;;;23.74;56.23
59194;BME280;44967;48.598;15.650;2022-07-05T00:31:50;98181.00;;;23.65;57.12
59194;BME280;44967;48.598;15.650;2022-07-05T00:34:16;98175.59;;;23.36;57.76
59194;BME280;44967;48.598;15.650;2022-07-05T00:36:42;98169.91;;;23.26;57.60
59194;BME280;44967;48.598;15.650;2022-07-05T00:39:08;98172.03;;;23.35;57.68
59194;BME280;44967;48.598;15.650;2022-07-05T00:41:35;98162.31;;;23.27;57.26
59194;BME280;44967;48.598;15.650;2022-07-05T00:44:05;98181.94;;;23.36;57.28
59194;BME280;44967;48.598;15.650;2022-07-05T00:46:31;98183.84;;;23.39;57.05
59194;BME280;44967;48.598;15.650;2022-07-05T00:48:58;98182.81;;;23.46;56.63
59194;BME280;44967;48.598;15.650;2022-07-05T00:51:25;98179.72;;;23.44;56.72
59194;BME280;44967;48.598;15.650;2022-07-05T00:53:51;98171.25;;;23.35;56.34
59194;BME280;44967;48.598;15.650;2022-07-05T00:56:23;98175.00;;;23.28;56.84
59194;BME280;44967;48.598;15.650;2022-07-05T00:58:49;98172.44;;;23.21;57.02
59194;BME280;44967;48.598;15.650;2022-07-05T01:01:15;98173.22;;;23.21;57.19
59194;BME280;44967;48.598;15.650;2022-07-05T01:03:42;98170.44;;;23.21;56.45
59194;BME280;44967;48.598;15.650;2022-07-05T01:06:09;98160.66;;;23.17;56.94
59194;BME280;44967;48.598;15.650;2022-07-05T01:08:38;98165.66;;;23.22;56.60
59194;BME280;44967;48.598;15.650;2022-07-05T01:11:05;98161.19;;;23.24;56.57
59194;BME280;44967;48.598;15.650;2022-07-05T01:13:31;98153.41;;;23.19;55.88
59194;BME280;44967;48.598;15.650;2022-07-05T01:15:57;98154.63;;;23.05;56.58
59194;BME280;44967;48.598;15.650;2022-07-05T01:18:24;98153.63;;;22.99;56.82
59194;BME280;44967;48.598;15.650;2022-07-05T01:20:50;98153.28;;;22.97;57.35
59194;BME280;44967;48.598;15.650;2022-07-05T01:23:19;98155.75;;;22.95;56.47
59194;BME280;44967;48.598;15.650;2022-07-05T01:25:46;98155.53;;;23.02;56.34
59194;BME280;44967;48.598;15.650;2022-07-05T01:28:12;98160.44;;;22.98;56.72
59194;BME280;44967;48.598;15.650;2022-07-05T01:30:38;98148.38;;;23.14;56.22
59194;BME280;44967;48.598;15.650;2022-07-05T01:33:06;98140.25;;;23.07;56.40
59194;BME280;44967;48.598;15.650;2022-07-05T01:35:32;98139.59;;;23.03;56.09
59194;BME280;44967;48.598;15.650;2022-07-05T01:37:58;98133.69;;;23.00;56.00
59194;BME280;44967;48.598;15.650;2022-07-05T01:40:24;98138.50;;;23.00;56.34
59194;BME280;44967;48.598;15.650;2022-07-05T01:42:50;98129.34;;;22.99;56.32
59194;BME280;44967;48.598;15.650;2022-07-05T01:45:16;98131.69;;;23.01;56.42
59194;BME280;44967;48.598;15.650;2022-07-05T01:48:00;98129.56;;;23.05;56.17
59194;BME280;44967;48.598;15.650;2022-07-05T01:50:29;98124.69;;;22.96;56.13
59194;BME280;44967;48.598;15.650;2022-07-05T01:52:56;98131.13;;;22.93;56.33
59194;BME280;44967;48.598;15.650;2022-07-05T01:55:22;98123.13;;;22.95;56.44
59194;BME280;44967;48.598;15.650;2022-07-05T01:57:48;98120.34;;;22.95;56.35
59194;BME280;44967;48.598;15.650;2022-07-05T02:00:14;98119.75;;;23.00;56.33
59194;BME280;44967;48.598;15.650;2022-07-05T02:02:41;98112.31;;;22.97;56.42
59194;BME280;44967;48.598;15.650;2022-07-05T02:05:07;98107.41;;;23.01;56.35
59194;BME280;44967;48.598;15.650;2022-07-05T02:07:33;98108.19;;;23.02;56.41
59194;BME280;44967;48.598;15.650;2022-07-05T02:09:59;98101.25;;;23.07;56.45
59194;BME280;44967;48.598;15.650;2022-07-05T02:12:24;98106.75;;;22.97;56.67
59194;BME280;44967;48.598;15.650;2022-07-05T02:14:50;98112.84;;;22.92;56.49
59194;BME280;44967;48.598;15.650;2022-07-05T02:17:16;98109.53;;;22.97;56.52
59194;BME280;44967;48.598;15.650;2022-07-05T02:19:41;98112.53;;;23.03;56.47
59194;BME280;44967;48.598;15.650;2022-07-05T02:22:07;98109.63;;;22.94;56.43
59194;BME280;44967;48.598;15.650;2022-07-05T02:24:33;98106.06;;;22.93;56.75
59194;BME280;44967;48.598;15.650;2022-07-05T02:26:59;98122.44;;;22.91;56.36
59194;BME280;44967;48.598;15.650;2022-07-05T02:29:25;98131.38;;;22.86;57.10
59194;BME280;44967;48.598;15.650;2022-07-05T02:31:50;98132.03;;;22.90;56.93
59194;BME280;44967;48.598;15.650;2022-07-05T02:34:16;98132.47;;;23.01;56.56
59194;BME280;44967;48.598;15.650;2022-07-05T02:36:42;98139.59;;;23.03;56.29
59194;BME280;44967;48.598;15.650;2022-07-05T02:39:07;98156.97;;;22.94;57.07
59194;BME280;44967;48.598;15.650;2022-07-05T02:41:33;98159.16;;;22.73;58.00
59194;BME280;44967;48.598;15.650;2022-07-05T02:43:59;98166.16;;;22.52;59.15
59194;BME280;44967;48.598;15.650;2022-07-05T02:46:24;98177.31;;;22.65;58.37
59194;BME280;44967;48.598;15.650;2022-07-05T02:48:51;98174.50;;;22.52;58.74
59194;BME280;44967;48.598;15.650;2022-07-05T02:51:17;98180.06;;;22.52;59.19
59194;BME280;44967;48.598;15.650;2022-07-05T02:53:43;98180.19;;;22.61;58.50
59194;BME280;44967;48.598;15.650;2022-07-05T02:56:08;98170.78;;;22.71;58.73
59194;BME280;44967;48.598;15.650;2022-07-05T02:58:34;98173.44;;;22.75;58.23
59194;BME280;44967;48.598;15.650;2022-07-05T03:00:59;98173.09;;;22.73;58.50
59194;BME280;44967;48.598;15.650;2022-07-05T03:03:25;98164.53;;;22.80;58.20
59194;BME280;44967;48.598;15.650;2022-07-05T03:05:50;98151.41;;;22.81;57.44
59194;BME280;44967;48.598;15.650;2022-07-05T03:08:16;98160.06;;;22.83;57.08
59194;BME280;44967;48.598;15.650;2022-07-05T03:10:42;98158.72;;;22.74;57.41
59194;BME280;44967;48.598;15.650;2022-07-05T03:13:07;98158.97;;;22.80;57.34
59194;BME280;44967;48.598;15.650;2022-07-05T03:15:33;98161.75;;;22.93;57.08
59194;BME280;44967;48.598;15.650;2022-07-05T03:17:59;98157.88;;;22.91;56.52
59194;BME280;44967;48.598;15.650;2022-07-05T03:20:24;98158.09;;;22.96;56.90
59194;BME280;44967;48.598;15.650;2022-07-05T03:22:50;98168.53;;;22.92;56.49
59194;BME280;44967;48.598;15.650;2022-07-05T03:25:15;98173.47;;;22.88;56.23
59194;BME280;44967;48.598;15.650;2022-07-05T03:27:41;98179.78;;;22.88;55.74
59194;BME280;44967;48.598;15.650;2022-07-05T03:30:07;98181.03;;;22.87;56.91
59194;BME280;44967;48.598;15.650;2022-07-05T03:32:33;98187.47;;;22.84;57.40
59194;BME280;44967;48.598;15.650;2022-07-05T03:34:58;98186.16;;;22.89;56.44
59194;BME280;44967;48.598;15.650;2022-07-05T03:37:24;98184.91;;;22.77;57.44
59194;BME280;44967;48.598;15.650;2022-07-05T03:39:49;98191.13;;;22.81;57.07
59194;BME280;44967;48.598;15.650;2022-07-05T03:42:15;98188.72;;;22.83;57.01
59194;BME280;44967;48.598;15.650;2022-07-05T03:44:40;98202.31;;;22.94;57.18
59194;BME280;44967;48.598;15.650;2022-07-05T03:47:06;98197.63;;;22.91;56.76
59194;BME280;44967;48.598;15.650;2022-07-05T03:49:32;98201.41;;;22.97;56.82
59194;BME280;44967;48.598;15.650;2022-07-05T03:51:57;98203.66;;;23.03;56.39
59194;BME280;44967;48.598;15.650;2022-07-05T03:54:23;98205.44;;;23.09;56.38
59194;BME280;44967;48.598;15.650;2022-07-05T03:56:49;98213.47;;;23.20;56.80
59194;BME280;44967;48.598;15.650;2022-07-05T03:59:14;98214.00;;;23.28;56.44
59194;BME280;44967;48.598;15.650;2022-07-05T04:01:40;98206.22;;;23.23;56.58
59194;BME280;44967;48.598;15.650;2022-07-05T04:04:06;98204.69;;;23.35;56.49
59194;BME280;44967;48.598;15.650;2022-07-05T04:06:31;98199.13;;;23.35;56.52
59194;BME280;44967;48.598;15.650;2022-07-05T04:08:57;98206.91;;;23.40;56.19
59194;BME280;44967;48.598;15.650;2022-07-05T04:11:22;98204.00;;;23.31;57.00
59194;BME280;44967;48.598;15.650;2022-07-05T04:13:48;98201.31;;;23.40;56.94
59194;BME280;44967;48.598;15.650;2022-07-05T04:16:14;98197.34;;;23.41;56.53
59194;BME280;44967;48.598;15.650;2022-07-05T04:18:39;98196.75;;;23.46;56.57
59194;BME280;44967;48.598;15.650;2022-07-05T04:21:05;98194.19;;;23.52;56.19
59194;BME280;44967;48.598;15.650;2022-07-05T04:23:31;98193.50;;;23.61;56.55
59194;BME280;44967;48.598;15.650;2022-07-05T04:25:57;98202.19;;;23.63;56.65
59194;BME280;44967;48.598;15.650;2022-07-05T04:28:22;98193.59;;;23.70;55.94
59194;BME280;44967;48.598;15.650;2022-07-05T04:30:48;98190.03;;;23.69;56.23
59194;BME280;44967;48.598;15.650;2022-07-05T04:33:14;98193.19;;;23.59;56.05
59194;BME280;44967;48.598;15.650;2022-07-05T04:35:39;98193.38;;;23.64;57.04
59194;BME280;44967;48.598;15.650;2022-07-05T04:38:05;98192.47;;;23.67;56.72
59194;BME280;44967;48.598;15.650;2022-07-05T04:40:31;98194.91;;;23.78;56.26
59194;BME280;44967;48.598;15.650;2022-07-05T04:42:56;98195.38;;;23.77;56.86
59194;BME280;44967;48.598;15.650;2022-07-05T04:45:22;98200.28;;;23.73;56.49
59194;BME280;44967;48.598;15.650;2022-07-05T04:47:48;98201.03;;;23.86;56.88
59194;BME280;44967;48.598;15.650;2022-07-05T04:50:13;98192.56;;;23.90;56.59
59194;BME280;44967;48.598;15.650;2022-07-05T04:52:39;98193.66;;;23.92;56.81
59194;BME280;44967;48.598;15.650;2022-07-05T04:55:05;98185.63;;;23.94;56.62
59194;BME280;44967;48.598;15.650;2022-07-05T04:57:40;98195.22;;;24.06;56.33
59194;BME280;44967;48.598;15.650;2022-07-05T05:00:09;98191.91;;;24.21;55.74
59194;BME280;44967;48.598;15.650;2022-07-05T05:02:35;98194.38;;;24.19;55.96
59194;BME280;44967;48.598;15.650;2022-07-05T05:05:01;98185.22;;;24.41;55.45
59194;BME280;44967;48.598;15.650;2022-07-05T05:07:27;98195.44;;;24.34;55.68
59194;BME280;44967;48.598;15.650;2022-07-05T05:09:53;98182.97;;;24.48;55.86
59194;BME280;44967;48.598;15.650;2022-07-05T05:12:18;98187.50;;;24.55;55.55
59194;BME280;44967;48.598;15.650;2022-07-05T05:14:44;98191.72;;;24.60;54.80
59194;BME280;44967;48.598;15.650;2022-07-05T05:17:09;98203.78;;;24.57;56.12
59194;BME280;44967;48.598;15.650;2022-07-05T05:19:35;98204.38;;;24.29;56.02
59194;BME280;44967;48.598;15.650;2022-07-05T05:22:01;98205.28;;;24.48;55.21
59194;BME280;44967;48.598;15.650;2022-07-05T05:24:26;98212.34;;;24.62;55.49
59194;BME280;44967;48.598;15.650;2022-07-05T05:26:52;98213.66;;;24.71;55.01
59194;BME280;44967;48.598;15.650;2022-07-05T05:29:18;98213.28;;;24.82;54.70
59194;BME280;44967;48.598;15.650;2022-07-05T05:31:46;98212.88;;;24.48;55.37
59194;BME280;44967;48.598;15.650;2022-07-05T05:34:12;98209.16;;;24.73;54.82
59194;BME280;44967;48.598;15.650;2022-07-05T05:36:37;98215.06;;;24.75;54.15
59194;BME280;44967;48.598;15.650;2022-07-05T05:39:03;98213.00;;;24.89;54.20
59194;BME280;44967;48.598;15.650;2022-07-05T05:41:29;98210.91;;;25.02;54.17
59194;BME280;44967;48.598;15.650;2022-07-05T05:43:55;98207.31;;;25.33;53.35
59194;BME280;44967;48.598;15.650;2022-07-05T05:46:20;98214.41;;;25.57;52.89
59194;BME280;44967;48.598;15.650;2022-07-05T05:48:46;98220.53;;;25.42;53.28
59194;BME280;44967;48.598;15.650;2022-07-05T05:51:11;98222.72;;;25.47;52.73
59194;BME280;44967;48.598;15.650;2022-07-05T05:53:37;98222.41;;;25.36;53.29
59194;BME280;44967;48.598;15.650;2022-07-05T05:56:03;98216.97;;;25.42;53.25
59194;BME280;44967;48.598;15.650;2022-07-05T05:58:29;98229.97;;;25.26;53.29
59194;BME280;44967;48.598;15.650;2022-07-05T06:00:54;98223.19;;;25.05;54.70
59194;BME280;44967;48.598;15.650;2022-07-05T06:03:21;98231.31;;;24.68;54.90
59194;BME280;44967;48.598;15.650;2022-07-05T06:05:47;98235.81;;;24.87;54.50
59194;BME280;44967;48.598;15.650;2022-07-05T06:08:13;98234.56;;;24.88;54.21
59194;BME280;44967;48.598;15.650;2022-07-05T06:10:39;98227.16;;;25.26;53.61
59194;BME280;44967;48.598;15.650;2022-07-05T06:13:07;98240.91;;;25.11;54.09
59194;BME280;44967;48.598;15.650;2022-07-05T06:15:34;98242.97;;;25.20;53.94
59194;BME280;44967;48.598;15.650;2022-07-05T06:18:00;98238.38;;;25.36;54.15
59194;BME280;44967;48.598;15.650;2022-07-05T06:20:34;98236.31;;;25.58;53.09
59194;BME280;44967;48.598;15.650;2022-07-05T06:23:01;98247.50;;;25.58;52.98
59194;BME280;44967;48.598;15.650;2022-07-05T06:25:29;98246.03;;;25.44;53.87
59194;BME280;44967;48.598;15.650;2022-07-05T06:28:06;98245.06;;;25.38;53.82
59194;BME280;44967;48.598;15.650;2022-07-05T06:30:35;98249.72;;;25.73;52.99
59194;BME280;44967;48.598;15.650;2022-07-05T06:33:00;98253.03;;;25.49;53.98
59194;BME280;44967;48.598;15.650;2022-07-05T06:35:26;98254.63;;;25.28;53.95
59194;BME280;44967;48.598;15.650;2022-07-05T06:38:07;98260.38;;;25.24;54.61
59194;BME280;44967;48.598;15.650;2022-07-05T06:40:41;98259.31;;;25.31;54.40
59194;BME280;44967;48.598;15.650;2022-07-05T06:43:12;98267.47;;;25.47;53.89
59194;BME280;44967;48.598;15.650;2022-07-05T06:45:38;98276.41;;;25.65;53.98
59194;BME280;44967;48.598;15.650;2022-07-05T06:48:06;98277.38;;;25.39;53.92
59194;BME280;44967;48.598;15.650;2022-07-05T06:50:34;98274.25;;;25.37;54.57
59194;BME280;44967;48.598;15.650;2022-07-05T06:53:04;98289.94;;;25.35;54.06
59194;BME280;44967;48.598;15.650;2022-07-05T06:55:30;98286.88;;;25.19;53.63
59194;BME280;44967;48.598;15.650;2022-07-05T06:58:01;98289.28;;;24.99;54.29
59194;BME280;44967;48.598;15.650;2022-07-05T07:00:27;98299.66;;;24.98;53.67
59194;BME280;44967;48.598;15.650;2022-07-05T07:02:53;98304.97;;;25.05;53.94
59194;BME280;44967;48.598;15.650;2022-07-05T07:05:19;98306.22;;;24.82;54.62
59194;BME280;44967;48.598;15.650;2022-07-05T07:07:45;98308.28;;;24.69;54.61
59194;BME280;44967;48.598;15.650;2022-07-05T07:10:29;98320.38;;;25.10;54.82
59194;BME280;44967;48.598;15.650;2022-07-05T07:12:55;98319.59;;;25.10;54.76
59194;BME280;44967;48.598;15.650;2022-07-05T07:15:20;98318.50;;;25.07;55.21
59194;BME280;44967;48.598;15.650;2022-07-05T07:17:46;98319.88;;;25.02;55.21
59194;BME280;44967;48.598;15.650;2022-07-05T07:20:12;98313.81;;;25.04;54.28
59194;BME280;44967;48.598;15.650;2022-07-05T07:22:38;98313.81;;;25.04;55.48
59194;BME280;44967;48.598;15.650;2022-07-05T07:25:03;98316.56;;;24.59;55.30
59194;BME280;44967;48.598;15.650;2022-07-05T07:27:31;98314.91;;;24.62;55.11
59194;BME280;44967;48.598;15.650;2022-07-05T07:29:56;98317.69;;;24.62;56.20
59194;BME280;44967;48.598;15.650;2022-07-05T07:32:22;98324.09;;;24.72;55.73
59194;BME280;44967;48.598;15.650;2022-07-05T07:34:47;98325.41;;;24.58;56.27
59194;BME280;44967;48.598;15.650;2022-07-05T07:37:13;98328.19;;;24.58;55.76
59194;BME280;44967;48.598;15.650;2022-07-05T07:39:40;98327.03;;;24.68;56.10
59194;BME280;44967;48.598;15.650;2022-07-05T07:42:07;98332.81;;;24.38;56.13
59194;BME280;44967;48.598;15.650;2022-07-05T07:44:33;98329.09;;;24.55;56.81
59194;BME280;44967;48.598;15.650;2022-07-05T07:46:58;98326.88;;;24.49;56.80
59194;BME280;44967;48.598;15.650;2022-07-05T07:49:24;98332.91;;;24.48;57.39
59194;BME280;44967;48.598;15.650;2022-07-05T07:51:51;98333.38;;;24.46;57.67
59194;BME280;44967;48.598;15.650;2022-07-05T07:54:17;98333.44;;;24.56;57.36
59194;BME280;44967;48.598;15.650;2022-07-05T07:56:43;98335.41;;;24.68;57.39
59194;BME280;44967;48.598;15.650;2022-07-05T07:59:09;98337.19;;;24.75;57.87
59194;BME280;44967;48.598;15.650;2022-07-05T08:01:35;98336.44;;;24.61;58.11
59194;BME280;44967;48.598;15.650;2022-07-05T08:04:00;98334.94;;;24.47;58.79
59194;BME280;44967;48.598;15.650;2022-07-05T08:06:26;98333.25;;;24.50;58.30
59194;BME280;44967;48.598;15.650;2022-07-05T08:08:51;98335.50;;;24.42;58.38
59194;BME280;44967;48.598;15.650;2022-07-05T08:11:17;98339.97;;;24.40;57.84
59194;BME280;44967;48.598;15.650;2022-07-05T08:13:43;98340.88;;;24.36;58.25
59194;BME280;44967;48.598;15.650;2022-07-05T08:16:09;98347.09;;;24.41;57.79
59194;BME280;44967;48.598;15.650;2022-07-05T08:18:35;98349.53;;;24.51;57.69
59194;BME280;44967;48.598;15.650;2022-07-05T08:21:20;98351.00;;;24.43;57.71
59194;BME280;44967;48.598;15.650;2022-07-05T08:24:18;98356.94;;;24.32;58.24
59194;BME280;44967;48.598;15.650;2022-07-05T08:26:43;98356.22;;;24.54;57.49
59194;BME280;44967;48.598;15.650;2022-07-05T08:29:11;98364.56;;;24.67;57.52
59194;BME280;44967;48.598;15.650;2022-07-05T08:31:38;98365.00;;;24.65;56.73
59194;BME280;44967;48.598;15.650;2022-07-05T08:34:04;98369.53;;;24.50;57.08
59194;BME280;44967;48.598;15.650;2022-07-05T08:36:30;98363.31;;;24.68;57.37
59194;BME280;44967;48.598;15.650;2022-07-05T08:38:56;98366.94;;;24.56;57.77
59194;BME280;44967;48.598;15.650;2022-07-05T08:41:22;98372.41;;;24.59;56.49
59194;BME280;44967;48.598;15.650;2022-07-05T08:43:49;98360.81;;;24.48;57.07
59194;BME280;44967;48.598;15.650;2022-07-05T08:46:17;98366.72;;;24.63;58.36
59194;BME280;44967;48.598;15.650;2022-07-05T08:48:49;98364.44;;;24.71;57.18
59194;BME280;44967;48.598;15.650;2022-07-05T08:51:19;98362.66;;;24.99;57.51
59194;BME280;44967;48.598;15.650;2022-07-05T08:53:49;98361.91;;;24.99;57.76
59194;BME280;44967;48.598;15.650;2022-07-05T08:56:15;98364.94;;;24.91;57.56
59194;BME280;44967;48.598;15.650;2022-07-05T08:58:41;98362.34;;;24.97;56.80
59194;BME280;44967;48.598;15.650;2022-07-05T09:01:08;98357.28;;;25.05;55.81
59194;BME280;44967;48.598;15.650;2022-07-05T09:03:52;98358.66;;;25.23;56.05
59194;BME280;44967;48.598;15.650;2022-07-05T09:06:21;98356.81;;;25.29;56.45
59194;BME280;44967;48.598;15.650;2022-07-05T09:08:48;98358.53;;;25.26;56.31
59194;BME280;44967;48.598;15.650;2022-07-05T09:11:16;98354.97;;;25.35;56.37
59194;BME280;44967;48.598;15.650;2022-07-05T09:13:45;98362.06;;;25.27;54.88
59194;BME280;44967;48.598;15.650;2022-07-05T09:16:13;98358.19;;;25.02;55.51
59194;BME280;44967;48.598;15.650;2022-07-05T09:19:04;98357.41;;;25.24;56.19
59194;BME280;44967;48.598;15.650;2022-07-05T09:21:28;98345.50;;;25.55;55.85
59194;BME280;44967;48.598;15.650;2022-07-05T09:23:56;98347.38;;;25.58;55.14
59194;BME280;44967;48.598;15.650;2022-07-05T09:26:33;98353.56;;;25.53;55.47
59194;BME280;44967;48.598;15.650;2022-07-05T09:28:59;98356.56;;;25.36;56.36
59194;BME280;44967;48.598;15.650;2022-07-05T09:31:27;98356.25;;;25.43;55.17
59194;BME280;44967;48.598;15.650;2022-07-05T09:33:53;98341.91;;;25.54;55.94
59194;BME280;44967;48.598;15.650;2022-07-05T09:36:19;98334.00;;;25.53;54.92
59194;BME280;44967;48.598;15.650;2022-07-05T09:38:49;98354.13;;;25.47;55.37
59194;BME280;44967;48.598;15.650;2022-07-05T09:41:16;98352.81;;;25.93;55.27
59194;BME280;44967;48.598;15.650;2022-07-05T09:43:41;98348.75;;;25.94;55.72
59194;BME280;44967;48.598;15.650;2022-07-05T09:46:07;98343.84;;;26.08;54.76
59194;BME280;44967;48.598;15.650;2022-07-05T09:48:34;98344.16;;;26.19;55.44
59194;BME280;44967;48.598;15.650;2022-07-05T09:53:47;98351.13;;;26.05;54.46
59194;BME280;44967;48.598;15.650;2022-07-05T09:56:13;98352.22;;;26.08;54.68
59194;BME280;44967;48.598;15.650;2022-07-05T09:58:39;98348.88;;;26.32;54.40
59194;BME280;44967;48.598;15.650;2022-07-05T10:03:59;98351.94;;;26.15;54.00
59194;BME280;44967;48.598;15.650;2022-07-05T10:06:31;98349.63;;;26.23;54.12
59194;BME280;44967;48.598;15.650;2022-07-05T10:08:57;98360.22;;;25.87;54.63
59194;BME280;44967;48.598;15.650;2022-07-05T10:11:23;98352.56;;;26.19;55.88
59194;BME280;44967;48.598;15.650;2022-07-05T10:13:51;98360.75;;;26.54;54.18
59194;BME280;44967;48.598;15.650;2022-07-05T10:16:19;98371.16;;;26.54;54.33
59194;BME280;44967;48.598;15.650;2022-07-05T10:18:46;98366.66;;;26.66;53.75
59194;BME280;44967;48.598;15.650;2022-07-05T10:21:14;98374.59;;;26.77;54.06
59194;BME280;44967;48.598;15.650;2022-07-05T10:23:44;98373.66;;;26.80;54.30
59194;BME280;44967;48.598;15.650;2022-07-05T10:26:14;98378.44;;;26.33;54.77
59194;BME280;44967;48.598;15.650;2022-07-05T10:28:44;98376.28;;;26.46;54.95
59194;BME280;44967;48.598;15.650;2022-07-05T10:31:11;98378.00;;;26.53;54.38
59194;BME280;44967;48.598;15.650;2022-07-05T10:33:38;98381.91;;;26.65;53.75
59194;BME280;44967;48.598;15.650;2022-07-05T10:36:04;98375.03;;;26.56;54.70
59194;BME280;44967;48.598;15.650;2022-07-05T10:38:30;98378.94;;;26.59;54.71
59194;BME280;44967;48.598;15.650;2022-07-05T10:40:59;98372.16;;;26.19;53.22
59194;BME280;44967;48.598;15.650;2022-07-05T10:43:27;98388.13;;;26.78;54.73
59194;BME280;44967;48.598;15.650;2022-07-05T10:45:53;98385.00;;;26.58;53.99
59194;BME280;44967;48.598;15.650;2022-07-05T10:53:16;98382.34;;;26.63;54.64
59194;BME280;44967;48.598;15.650;2022-07-05T11:03:49;98384.75;;;26.93;53.15
59194;BME280;44967;48.598;15.650;2022-07-05T11:11:38;98394.19;;;26.77;54.71
59194;BME280;44967;48.598;15.650;2022-07-05T11:16:46;98386.41;;;26.72;53.14
59194;BME280;44967;48.598;15.650;2022-07-05T11:19:16;98396.03;;;26.52;53.59
59194;BME280;44967;48.598;15.650;2022-07-05T11:22:05;98393.38;;;26.39;54.35
59194;BME280;44967;48.598;15.650;2022-07-05T11:24:36;98391.22;;;26.52;53.78
59194;BME280;44967;48.598;15.650;2022-07-05T11:27:09;98392.00;;;26.44;54.47
59194;BME280;44967;48.598;15.650;2022-07-05T11:32:11;98387.22;;;26.91;53.05
59194;BME280;44967;48.598;15.650;2022-07-05T11:34:41;98383.50;;;27.03;52.98
59194;BME280;44967;48.598;15.650;2022-07-05T11:39:41;98379.41;;;27.23;52.59
59194;BME280;44967;48.598;15.650;2022-07-05T11:42:20;98379.91;;;27.21;52.55
59194;BME280;44967;48.598;15.650;2022-07-05T11:44:52;98380.53;;;27.07;53.26
59194;BME280;44967;48.598;15.650;2022-07-05T11:47:19;98379.44;;;26.86;52.58
59194;BME280;44967;48.598;15.650;2022-07-05T11:49:57;98377.59;;;27.01;53.53
59194;BME280;44967;48.598;15.650;2022-07-05T11:52:30;98376.78;;;27.10;52.92
59194;BME280;44967;48.598;15.650;2022-07-05T11:54:57;98364.63;;;26.85;52.71
59194;BME280;44967;48.598;15.650;2022-07-05T11:57:24;98368.41;;;26.91;52.71
59194;BME280;44967;48.598;15.650;2022-07-05T11:59:50;98366.47;;;26.88;53.00
59194;BME280;44967;48.598;15.650;2022-07-05T12:02:17;98372.25;;;26.66;53.81
59194;BME280;44967;48.598;15.650;2022-07-05T12:04:52;98372.59;;;26.77;52.64
59194;BME280;44967;48.598;15.650;2022-07-05T12:07:31;98374.13;;;26.88;53.53
59194;BME280;44967;48.598;15.650;2022-07-05T12:09:57;98374.06;;;26.32;53.57
59194;BME280;44967;48.598;15.650;2022-07-05T12:12:42;98373.34;;;26.59;53.68
59194;BME280;44967;48.598;15.650;2022-07-05T12:17:40;98362.91;;;26.88;51.96
59194;BME280;44967;48.598;15.650;2022-07-05T12:20:10;98355.13;;;26.82;52.90
59194;BME280;44967;48.598;15.650;2022-07-05T12:22:39;98358.13;;;26.98;51.84
59194;BME280;44967;48.598;15.650;2022-07-05T12:25:07;98359.75;;;27.42;51.95
59194;BME280;44967;48.598;15.650;2022-07-05T12:27:37;98365.03;;;27.58;51.81
59194;BME280;44967;48.598;15.650;2022-07-05T12:30:04;98359.16;;;27.81;51.28
59194;BME280;44967;48.598;15.650;2022-07-05T12:32:31;98353.88;;;27.83;51.46
59194;BME280;44967;48.598;15.650;2022-07-05T12:34:57;98358.94;;;28.03;51.39
59194;BME280;44967;48.598;15.650;2022-07-05T12:37:24;98353.88;;;27.83;50.03
59194;BME280;44967;48.598;15.650;2022-07-05T12:40:05;98354.16;;;28.18;50.02
59194;BME280;44967;48.598;15.650;2022-07-05T12:42:38;98345.38;;;28.50;48.12
59194;BME280;44967;48.598;15.650;2022-07-05T12:45:12;98350.34;;;28.31;48.40
59194;BME280;44967;48.598;15.650;2022-07-05T12:47:52;98346.69;;;28.64;48.74
59194;BME280;44967;48.598;15.650;2022-07-05T12:50:28;98350.31;;;28.80;48.77
59194;BME280;44967;48.598;15.650;2022-07-05T12:53:05;98345.31;;;28.99;47.13
59194;BME280;44967;48.598;15.650;2022-07-05T12:55:50;98338.00;;;28.77;47.00
59194;BME280;44967;48.598;15.650;2022-07-05T12:59:08;98342.59;;;28.90;47.02
59194;BME280;44967;48.598;15.650;2022-07-05T13:01:38;98331.69;;;28.67;47.42
59194;BME280;44967;48.598;15.650;2022-07-05T13:04:12;98329.69;;;28.83;46.67
59194;BME280;44967;48.598;15.650;2022-07-05T13:06:43;98333.91;;;28.63;46.65
59194;BME280;44967;48.598;15.650;2022-07-05T13:09:14;98327.97;;;29.00;46.29
59194;BME280;44967;48.598;15.650;2022-07-05T13:11:40;98325.50;;;29.48;45.40
59194;BME280;44967;48.598;15.650;2022-07-05T13:14:06;98318.47;;;29.58;45.89
59194;BME280;44967;48.598;15.650;2022-07-05T13:16:32;98323.44;;;29.99;46.08
59194;BME280;44967;48.598;15.650;2022-07-05T13:19:08;98318.88;;;29.66;44.88
59194;BME280;44967;48.598;15.650;2022-07-05T13:21:34;98322.13;;;30.15;45.12
59194;BME280;44967;48.598;15.650;2022-07-05T13:24:01;98319.25;;;30.09;44.20
59194;BME280;44967;48.598;15.650;2022-07-05T13:26:27;98327.56;;;30.19;44.27